KVNYKSDL

Guest
Details From KVNY - Van Nuys
To KSDL - SCOTTSDALE
Flight Number -
Tags generated
Created
Modified
Stats Distance 332 nm / 614 km
Max Altitude 35,000 ft / 10,668 m
Waypoints 6
Social Downloads 0
Likes 0
Share VATSIM

Download

Looking for another format? Having issues loading an existing format? Contact us
Advertisement - Login to hide

Notes

Basic altitude profile: - Ascent Rate: 3000ft/min - Ascent Speed: 250kts - Cruise Altitude: 35000ft - Cruise Speed: 420kts - Descent Rate: 1700ft/min - Descent Speed: 250kts Options: - Use NATs: yes - Use PACOTS: yes - Use low airways: no - Use high airways: yes

Route

KVNY PSP J212 CULTS KSDL

ID Type Via Altitude Latitude Longitude Leg Dist Tot Dist Heading (true) Name
O KVNY APT - 0 ft / 0 m 34.21072˚ -118.48984˚ - 0 nm - Van Nuys
PSP DME - 35,000 ft / 10,668 m 33.87001˚ -116.42978˚ 104 nm 104 nm 101° / 102° PALM SPRINGS VORTAC
DECAS FIX J212 (AWY-HI) 35,000 ft / 10,668 m 33.82359˚ -115.45661˚ 48 nm 153 nm 93° / 94° -
CURIV FIX J212 (AWY-HI) 27,400 ft / 8,352 m 33.77305˚ -114.54406˚ 45 nm 198 nm 94° / 94° -
CULTS FIX J212 (AWY-HI) 25,000 ft / 7,620 m 33.58421˚ -113.51116˚ 52 nm 251 nm 102° / 103° -
O KSDL APT - 0 ft / 0 m 33.62288˚ -111.91053˚ 80 nm 331 nm 88° / 89° SCOTTSDALE

Altitude Profile

Advertisement - Login to hide

Weather


0- 5 10 15 20 25 30 35+ Temperature / ° C

Clouds and Precipitation
Forecast for 2017-12-12 00:00 UTC. Updated 2 hours ago

Ground ~20,000 ft ~40,000 ft Winds

KVNY

Details ICAO KVNY (VNY)
Name Van Nuys
Region United States
Timezone America/Los_Angeles (UTC-8.0)
Stats Elevation 802 ft / 244 m (AMSL)
Location 34.210723° -118.489841°
Runways 2
Magnetic Variation 12.075° E

METAR

KVNY 120051Z 36009KT 10SM CLR 21/M19 A3017 RMK AO2 SLP212 T02111194

Decode

TAF

TAF KVNY 120001Z 1200/1224 35008KT P6SM SCT250 FM122000 36012KT P6SM SKC

Decode

Departure Runways

ID Width Length Bearing (true) Bearing (mag) Surface Threshold Offset Overrun Length
16L 75 ft / 23 m 4,021 ft / 1,226 m 175.53° 163.45° Asphalt 1,430 ft / 436 m 0 ft / 0 m
16R 151 ft / 46 m 8,022 ft / 2,445 m 175.54° 163.46° Asphalt 1,430 ft / 436 m 151 ft / 46 m
34L 151 ft / 46 m 8,022 ft / 2,445 m 355.54° 343.46° Asphalt 0 ft / 0 m 151 ft / 46 m
34R 75 ft / 23 m 4,021 ft / 1,226 m 355.53° 343.45° Asphalt 0 ft / 0 m 0 ft / 0 m

KSDL

Details ICAO KSDL (ZSY)
Name SCOTTSDALE
Region United States
Timezone America/Phoenix (UTC-7.0)
Stats Elevation 1,510 ft / 460 m (AMSL)
Location 33.622881° -111.910535°
Runways 1
Magnetic Variation 10.314° E

METAR

KSDL 120053Z 00000KT 10SM CLR 19/M07 A3020 RMK AO2 SLP213 T01891072

Decode

TAF

KSDL 112327Z 1200/1224 VRB05KT P6SM BKN250

Decode

Destination Runways

ID Width Length Bearing (true) Bearing (mag) Surface Threshold Offset Overrun Length
03 100 ft / 30 m 8,253 ft / 2,516 m 43.82° 33.51° Asphalt 740 ft / 226 m 0 ft / 0 m
21 100 ft / 30 m 8,253 ft / 2,516 m 223.83° 213.52° Asphalt 400 ft / 122 m 0 ft / 0 m

Popular Alternatives